HLLB

Benina International Airport

Benghazi, Libya
METAR HLLB 221730Z 22012KT CAVOK 34/19 Q1015
Observed Flight Rules
May-22 @ 17:30 UTC (26 minutes ago) Visual Flight Rules
Wind Visibility Clouds
220° at 12 knots 10,000+ meters
  • Clear skies
Temperatures Readings
Current 34°C / 93°F
Dewpoint 19°C / 66°F
Humidity 41%
Altimeter 29.97" Hg
Pressure 1015 hPa
Elevation 132
METAR HLLB 221730Z 22012KT CAVOK 34/19 Q1015
Observed Flight Rules
May-22 @ 17:30 UTC
(26 minutes ago)
VFR
Wind Visibility
220° at 12 knots 10,000+ meters
Clouds
  • Clear skies
Temperature Dewpoint
34°C / 93°F 19°C / 66°F
Humidity Altimeter Pressure
41% 29.97" Hg 1015 hPa